sensor_id;sensor_type;location;lat;lon;timestamp;P1;P2;P0
77777;PMS5003;66966;-34.746;138.604;2023-07-29T00:02:12;3;1;
77777;PMS5003;66966;-34.746;138.604;2023-07-29T00:04:37;2;2;
77777;PMS5003;66966;-34.746;138.604;2023-07-29T00:07:03;2;2;
77777;PMS5003;66966;-34.746;138.604;2023-07-29T00:09:29;4;3;
77777;PMS5003;66966;-34.746;138.604;2023-07-29T00:11:55;4;3;
77777;PMS5003;66966;-34.746;138.604;2023-07-29T00:14:20;4;3;
77777;PMS5003;66966;-34.746;138.604;2023-07-29T00:16:46;1;1;
77777;PMS5003;66966;-34.746;138.604;2023-07-29T00:19:12;3;3;
77777;PMS5003;66966;-34.746;138.604;2023-07-29T00:21:38;3;1;
77777;PMS5003;66966;-34.746;138.604;2023-07-29T00:24:03;3;3;
77777;PMS5003;66966;-34.746;138.604;2023-07-29T00:26:29;2;2;
77777;PMS5003;66966;-34.746;138.604;2023-07-29T00:28:55;3;2;
77777;PMS5003;66966;-34.746;138.604;2023-07-29T00:31:20;3;3;
77777;PMS5003;66966;-34.746;138.604;2023-07-29T00:33:46;2;2;
77777;PMS5003;66966;-34.746;138.604;2023-07-29T00:36:11;4;3;
77777;PMS5003;66966;-34.746;138.604;2023-07-29T00:38:38;3;3;
77777;PMS5003;66966;-34.746;138.604;2023-07-29T00:41:03;5;5;
77777;PMS5003;66966;-34.746;138.604;2023-07-29T00:43:29;5;5;
77777;PMS5003;66966;-34.746;138.604;2023-07-29T00:45:55;3;3;
77777;PMS5003;66966;-34.746;138.604;2023-07-29T00:48:20;8;7;
77777;PMS5003;66966;-34.746;138.604;2023-07-29T00:50:46;4;4;
77777;PMS5003;66966;-34.746;138.604;2023-07-29T00:53:11;2;2;
77777;PMS5003;66966;-34.746;138.604;2023-07-29T00:55:37;5;5;
77777;PMS5003;66966;-34.746;138.604;2023-07-29T00:58:03;6;6;
77777;PMS5003;66966;-34.746;138.604;2023-07-29T01:00:28;6;6;
77777;PMS5003;66966;-34.746;138.604;2023-07-29T01:02:54;7;7;
77777;PMS5003;66966;-34.746;138.604;2023-07-29T01:05:20;6;6;
77777;PMS5003;66966;-34.746;138.604;2023-07-29T01:07:51;6;5;
77777;PMS5003;66966;-34.746;138.604;2023-07-29T01:10:14;4;4;
77777;PMS5003;66966;-34.746;138.604;2023-07-29T01:12:39;3;2;
77777;PMS5003;66966;-34.746;138.604;2023-07-29T01:15:05;2;2;
77777;PMS5003;66966;-34.746;138.604;2023-07-29T01:17:30;2;2;
77777;PMS5003;66966;-34.746;138.604;2023-07-29T01:20:00;4;2;
77777;PMS5003;66966;-34.746;138.604;2023-07-29T01:22:20;4;4;
77777;PMS5003;66966;-34.746;138.604;2023-07-29T01:24:46;5;5;
77777;PMS5003;66966;-34.746;138.604;2023-07-29T01:27:11;3;3;
77777;PMS5003;66966;-34.746;138.604;2023-07-29T01:29:36;3;3;
77777;PMS5003;66966;-34.746;138.604;2023-07-29T01:32:04;5;3;
77777;PMS5003;66966;-34.746;138.604;2023-07-29T01:34:29;4;4;
77777;PMS5003;66966;-34.746;138.604;2023-07-29T01:36:53;3;3;
77777;PMS5003;66966;-34.746;138.604;2023-07-29T01:39:19;3;2;
77777;PMS5003;66966;-34.746;138.604;2023-07-29T01:41:45;2;2;
77777;PMS5003;66966;-34.746;138.604;2023-07-29T01:44:10;5;4;
77777;PMS5003;66966;-34.746;138.604;2023-07-29T01:46:37;3;3;
77777;PMS5003;66966;-34.746;138.604;2023-07-29T01:49:02;6;5;
77777;PMS5003;66966;-34.746;138.604;2023-07-29T01:51:27;3;3;
77777;PMS5003;66966;-34.746;138.604;2023-07-29T01:53:53;2;2;
77777;PMS5003;66966;-34.746;138.604;2023-07-29T01:56:18;0;0;
77777;PMS5003;66966;-34.746;138.604;2023-07-29T01:58:44;0;0;
77777;PMS5003;66966;-34.746;138.604;2023-07-29T02:01:10;0;0;
77777;PMS5003;66966;-34.746;138.604;2023-07-29T02:03:35;0;0;
77777;PMS5003;66966;-34.746;138.604;2023-07-29T02:06:01;0;0;
77777;PMS5003;66966;-34.746;138.604;2023-07-29T02:08:27;1;0;
77777;PMS5003;66966;-34.746;138.604;2023-07-29T02:10:52;0;0;
77777;PMS5003;66966;-34.746;138.604;2023-07-29T02:13:17;2;0;
77777;PMS5003;66966;-34.746;138.604;2023-07-29T02:15:43;0;0;
77777;PMS5003;66966;-34.746;138.604;2023-07-29T02:18:09;0;0;
77777;PMS5003;66966;-34.746;138.604;2023-07-29T02:20:34;0;0;
77777;PMS5003;66966;-34.746;138.604;2023-07-29T02:23:00;0;0;
77777;PMS5003;66966;-34.746;138.604;2023-07-29T02:25:26;0;0;
77777;PMS5003;66966;-34.746;138.604;2023-07-29T02:27:51;0;0;
77777;PMS5003;66966;-34.746;138.604;2023-07-29T02:30:16;0;0;
77777;PMS5003;66966;-34.746;138.604;2023-07-29T02:32:42;1;0;
77777;PMS5003;66966;-34.746;138.604;2023-07-29T02:35:08;1;0;
77777;PMS5003;66966;-34.746;138.604;2023-07-29T02:37:33;0;0;
77777;PMS5003;66966;-34.746;138.604;2023-07-29T02:39:59;0;0;
77777;PMS5003;66966;-34.746;138.604;2023-07-29T02:42:24;0;0;
77777;PMS5003;66966;-34.746;138.604;2023-07-29T02:44:50;1;1;
77777;PMS5003;66966;-34.746;138.604;2023-07-29T02:47:16;0;0;
77777;PMS5003;66966;-34.746;138.604;2023-07-29T02:49:41;0;0;
77777;PMS5003;66966;-34.746;138.604;2023-07-29T02:52:06;0;0;
77777;PMS5003;66966;-34.746;138.604;2023-07-29T02:54:32;0;0;
77777;PMS5003;66966;-34.746;138.604;2023-07-29T02:56:58;0;0;
77777;PMS5003;66966;-34.746;138.604;2023-07-29T02:59:23;2;1;
77777;PMS5003;66966;-34.746;138.604;2023-07-29T03:01:49;0;0;
77777;PMS5003;66966;-34.746;138.604;2023-07-29T03:04:14;0;0;
77777;PMS5003;66966;-34.746;138.604;2023-07-29T03:06:40;2;0;
77777;PMS5003;66966;-34.746;138.604;2023-07-29T03:09:05;1;1;
77777;PMS5003;66966;-34.746;138.604;2023-07-29T03:11:31;1;1;
77777;PMS5003;66966;-34.746;138.604;2023-07-29T03:13:56;0;0;
77777;PMS5003;66966;-34.746;138.604;2023-07-29T03:16:22;2;0;
77777;PMS5003;66966;-34.746;138.604;2023-07-29T03:18:48;0;0;
77777;PMS5003;66966;-34.746;138.604;2023-07-29T03:21:13;0;0;
77777;PMS5003;66966;-34.746;138.604;2023-07-29T03:23:39;1;1;
77777;PMS5003;66966;-34.746;138.604;2023-07-29T03:26:05;0;0;
77777;PMS5003;66966;-34.746;138.604;2023-07-29T03:28:32;1;1;
77777;PMS5003;66966;-34.746;138.604;2023-07-29T03:30:55;1;0;
77777;PMS5003;66966;-34.746;138.604;2023-07-29T03:33:21;1;0;
77777;PMS5003;66966;-34.746;138.604;2023-07-29T03:35:47;1;1;
77777;PMS5003;66966;-34.746;138.604;2023-07-29T03:38:12;0;0;
77777;PMS5003;66966;-34.746;138.604;2023-07-29T03:40:37;0;0;
77777;PMS5003;66966;-34.746;138.604;2023-07-29T03:43:03;1;0;
77777;PMS5003;66966;-34.746;138.604;2023-07-29T03:45:28;0;0;
77777;PMS5003;66966;-34.746;138.604;2023-07-29T03:47:54;2;2;
77777;PMS5003;66966;-34.746;138.604;2023-07-29T03:50:20;0;0;
77777;PMS5003;66966;-34.746;138.604;2023-07-29T03:52:45;2;1;
77777;PMS5003;66966;-34.746;138.604;2023-07-29T03:55:11;1;1;
77777;PMS5003;66966;-34.746;138.604;2023-07-29T03:57:36;1;1;
77777;PMS5003;66966;-34.746;138.604;2023-07-29T04:00:02;1;1;
77777;PMS5003;66966;-34.746;138.604;2023-07-29T04:02:27;1;0;
77777;PMS5003;66966;-34.746;138.604;2023-07-29T04:04:53;1;1;
77777;PMS5003;66966;-34.746;138.604;2023-07-29T04:07:18;0;0;
77777;PMS5003;66966;-34.746;138.604;2023-07-29T04:09:44;0;0;
77777;PMS5003;66966;-34.746;138.604;2023-07-29T04:12:10;0;0;
77777;PMS5003;66966;-34.746;138.604;2023-07-29T04:14:35;0;0;
77777;PMS5003;66966;-34.746;138.604;2023-07-29T04:17:00;0;0;
77777;PMS5003;66966;-34.746;138.604;2023-07-29T04:19:26;0;0;
77777;PMS5003;66966;-34.746;138.604;2023-07-29T04:21:51;0;0;
77777;PMS5003;66966;-34.746;138.604;2023-07-29T04:24:17;0;0;
77777;PMS5003;66966;-34.746;138.604;2023-07-29T04:26:42;0;0;
77777;PMS5003;66966;-34.746;138.604;2023-07-29T04:29:08;0;0;
77777;PMS5003;66966;-34.746;138.604;2023-07-29T04:31:33;0;0;
77777;PMS5003;66966;-34.746;138.604;2023-07-29T04:33:59;0;0;
77777;PMS5003;66966;-34.746;138.604;2023-07-29T04:36:25;0;0;
77777;PMS5003;66966;-34.746;138.604;2023-07-29T04:38:50;0;0;
77777;PMS5003;66966;-34.746;138.604;2023-07-29T04:41:15;0;0;
77777;PMS5003;66966;-34.746;138.604;2023-07-29T04:43:41;0;0;
77777;PMS5003;66966;-34.746;138.604;2023-07-29T04:46:07;0;0;
77777;PMS5003;66966;-34.746;138.604;2023-07-29T04:48:32;0;0;
77777;PMS5003;66966;-34.746;138.604;2023-07-29T04:50:57;1;1;
77777;PMS5003;66966;-34.746;138.604;2023-07-29T04:53:23;0;0;
77777;PMS5003;66966;-34.746;138.604;2023-07-29T04:55:49;0;0;
77777;PMS5003;66966;-34.746;138.604;2023-07-29T04:58:14;0;0;
77777;PMS5003;66966;-34.746;138.604;2023-07-29T05:00:40;0;0;
77777;PMS5003;66966;-34.746;138.604;2023-07-29T05:03:05;0;0;
77777;PMS5003;66966;-34.746;138.604;2023-07-29T05:05:30;0;0;
77777;PMS5003;66966;-34.746;138.604;2023-07-29T05:07:56;0;0;
77777;PMS5003;66966;-34.746;138.604;2023-07-29T05:10:22;0;0;
77777;PMS5003;66966;-34.746;138.604;2023-07-29T05:12:47;0;0;
77777;PMS5003;66966;-34.746;138.604;2023-07-29T05:15:12;1;0;
77777;PMS5003;66966;-34.746;138.604;2023-07-29T05:17:38;0;0;
77777;PMS5003;66966;-34.746;138.604;2023-07-29T05:20:04;0;0;
77777;PMS5003;66966;-34.746;138.604;2023-07-29T05:22:29;1;0;
77777;PMS5003;66966;-34.746;138.604;2023-07-29T05:24:55;0;0;
77777;PMS5003;66966;-34.746;138.604;2023-07-29T05:27:20;0;0;
77777;PMS5003;66966;-34.746;138.604;2023-07-29T05:29:45;0;0;
77777;PMS5003;66966;-34.746;138.604;2023-07-29T05:32:11;0;0;
77777;PMS5003;66966;-34.746;138.604;2023-07-29T05:34:36;0;0;
77777;PMS5003;66966;-34.746;138.604;2023-07-29T05:37:02;0;0;
77777;PMS5003;66966;-34.746;138.604;2023-07-29T05:39:28;0;0;
77777;PMS5003;66966;-34.746;138.604;2023-07-29T05:41:52;1;0;
77777;PMS5003;66966;-34.746;138.604;2023-07-29T05:44:18;0;0;
77777;PMS5003;66966;-34.746;138.604;2023-07-29T05:46:44;0;0;
77777;PMS5003;66966;-34.746;138.604;2023-07-29T05:49:09;1;0;
77777;PMS5003;66966;-34.746;138.604;2023-07-29T05:51:35;0;0;
77777;PMS5003;66966;-34.746;138.604;2023-07-29T05:54:00;1;1;
77777;PMS5003;66966;-34.746;138.604;2023-07-29T05:56:26;1;0;
77777;PMS5003;66966;-34.746;138.604;2023-07-29T05:58:51;1;0;
77777;PMS5003;66966;-34.746;138.604;2023-07-29T06:01:18;0;0;
77777;PMS5003;66966;-34.746;138.604;2023-07-29T06:03:42;1;0;
77777;PMS5003;66966;-34.746;138.604;2023-07-29T06:06:08;0;0;
77777;PMS5003;66966;-34.746;138.604;2023-07-29T06:08:33;0;0;
77777;PMS5003;66966;-34.746;138.604;2023-07-29T06:10:58;1;0;
77777;PMS5003;66966;-34.746;138.604;2023-07-29T06:13:24;1;0;
77777;PMS5003;66966;-34.746;138.604;2023-07-29T06:15:49;0;0;
77777;PMS5003;66966;-34.746;138.604;2023-07-29T06:18:15;0;0;
77777;PMS5003;66966;-34.746;138.604;2023-07-29T06:20:40;0;0;
77777;PMS5003;66966;-34.746;138.604;2023-07-29T06:23:06;0;0;
77777;PMS5003;66966;-34.746;138.604;2023-07-29T06:25:32;0;0;
77777;PMS5003;66966;-34.746;138.604;2023-07-29T06:27:56;0;0;
77777;PMS5003;66966;-34.746;138.604;2023-07-29T06:30:22;0;0;
77777;PMS5003;66966;-34.746;138.604;2023-07-29T06:32:47;0;0;
77777;PMS5003;66966;-34.746;138.604;2023-07-29T06:35:13;1;1;
77777;PMS5003;66966;-34.746;138.604;2023-07-29T06:37:39;0;0;
77777;PMS5003;66966;-34.746;138.604;2023-07-29T06:40:04;1;1;
77777;PMS5003;66966;-34.746;138.604;2023-07-29T06:42:29;1;0;
77777;PMS5003;66966;-34.746;138.604;2023-07-29T06:44:55;0;0;
77777;PMS5003;66966;-34.746;138.604;2023-07-29T06:47:20;0;0;
77777;PMS5003;66966;-34.746;138.604;2023-07-29T06:49:46;0;0;
77777;PMS5003;66966;-34.746;138.604;2023-07-29T06:52:11;0;0;
77777;PMS5003;66966;-34.746;138.604;2023-07-29T06:54:37;0;0;
77777;PMS5003;66966;-34.746;138.604;2023-07-29T06:57:02;0;0;
77777;PMS5003;66966;-34.746;138.604;2023-07-29T06:59:28;1;1;
77777;PMS5003;66966;-34.746;138.604;2023-07-29T07:01:54;0;0;
77777;PMS5003;66966;-34.746;138.604;2023-07-29T07:04:19;0;0;
77777;PMS5003;66966;-34.746;138.604;2023-07-29T07:06:44;0;0;
77777;PMS5003;66966;-34.746;138.604;2023-07-29T07:09:10;0;0;
77777;PMS5003;66966;-34.746;138.604;2023-07-29T07:11:35;0;0;
77777;PMS5003;66966;-34.746;138.604;2023-07-29T07:14:01;1;1;
77777;PMS5003;66966;-34.746;138.604;2023-07-29T07:16:26;1;0;
77777;PMS5003;66966;-34.746;138.604;2023-07-29T07:18:52;1;0;
77777;PMS5003;66966;-34.746;138.604;2023-07-29T07:21:17;0;0;
77777;PMS5003;66966;-34.746;138.604;2023-07-29T07:23:43;1;0;
77777;PMS5003;66966;-34.746;138.604;2023-07-29T07:26:09;1;1;
77777;PMS5003;66966;-34.746;138.604;2023-07-29T07:28:34;1;0;
77777;PMS5003;66966;-34.746;138.604;2023-07-29T07:30:59;1;1;
77777;PMS5003;66966;-34.746;138.604;2023-07-29T07:33:25;0;0;
77777;PMS5003;66966;-34.746;138.604;2023-07-29T07:35:50;0;0;
77777;PMS5003;66966;-34.746;138.604;2023-07-29T07:38:16;2;1;
77777;PMS5003;66966;-34.746;138.604;2023-07-29T07:40:42;1;1;
77777;PMS5003;66966;-34.746;138.604;2023-07-29T07:43:07;3;2;
77777;PMS5003;66966;-34.746;138.604;2023-07-29T07:45:33;2;1;
77777;PMS5003;66966;-34.746;138.604;2023-07-29T07:47:58;1;1;
77777;PMS5003;66966;-34.746;138.604;2023-07-29T07:50:24;1;1;
77777;PMS5003;66966;-34.746;138.604;2023-07-29T07:52:49;1;1;
77777;PMS5003;66966;-34.746;138.604;2023-07-29T07:55:15;1;1;
77777;PMS5003;66966;-34.746;138.604;2023-07-29T07:57:40;1;1;
77777;PMS5003;66966;-34.746;138.604;2023-07-29T08:00:06;0;0;
77777;PMS5003;66966;-34.746;138.604;2023-07-29T08:02:32;1;1;
77777;PMS5003;66966;-34.746;138.604;2023-07-29T08:04:57;2;1;
77777;PMS5003;66966;-34.746;138.604;2023-07-29T08:07:22;2;2;
77777;PMS5003;66966;-34.746;138.604;2023-07-29T08:09:48;2;2;
77777;PMS5003;66966;-34.746;138.604;2023-07-29T08:12:14;2;1;
77777;PMS5003;66966;-34.746;138.604;2023-07-29T08:14:40;2;1;
77777;PMS5003;66966;-34.746;138.604;2023-07-29T08:17:05;3;3;
77777;PMS5003;66966;-34.746;138.604;2023-07-29T08:19:30;2;2;
77777;PMS5003;66966;-34.746;138.604;2023-07-29T08:21:56;3;3;
77777;PMS5003;66966;-34.746;138.604;2023-07-29T08:24:22;3;3;
77777;PMS5003;66966;-34.746;138.604;2023-07-29T08:26:47;6;5;
77777;PMS5003;66966;-34.746;138.604;2023-07-29T08:29:12;10;8;
77777;PMS5003;66966;-34.746;138.604;2023-07-29T08:31:38;12;12;
77777;PMS5003;66966;-34.746;138.604;2023-07-29T08:34:03;14;13;
77777;PMS5003;66966;-34.746;138.604;2023-07-29T08:36:28;21;21;
77777;PMS5003;66966;-34.746;138.604;2023-07-29T08:38:54;25;21;
77777;PMS5003;66966;-34.746;138.604;2023-07-29T08:41:19;19;18;
77777;PMS5003;66966;-34.746;138.604;2023-07-29T08:43:46;14;13;
77777;PMS5003;66966;-34.746;138.604;2023-07-29T08:46:09;12;11;
77777;PMS5003;66966;-34.746;138.604;2023-07-29T08:48:36;14;13;
77777;PMS5003;66966;-34.746;138.604;2023-07-29T08:51:01;16;14;
77777;PMS5003;66966;-34.746;138.604;2023-07-29T08:53:26;12;12;
77777;PMS5003;66966;-34.746;138.604;2023-07-29T08:55:51;18;16;
77777;PMS5003;66966;-34.746;138.604;2023-07-29T08:58:16;18;16;
77777;PMS5003;66966;-34.746;138.604;2023-07-29T09:00:42;15;15;
77777;PMS5003;66966;-34.746;138.604;2023-07-29T09:03:08;15;15;
77777;PMS5003;66966;-34.746;138.604;2023-07-29T09:05:33;16;16;
77777;PMS5003;66966;-34.746;138.604;2023-07-29T09:07:58;24;22;
77777;PMS5003;66966;-34.746;138.604;2023-07-29T09:10:24;27;26;
77777;PMS5003;66966;-34.746;138.604;2023-07-29T09:12:49;28;28;
77777;PMS5003;66966;-34.746;138.604;2023-07-29T09:17:40;66;61;
77777;PMS5003;66966;-34.746;138.604;2023-07-29T09:20:05;66;64;
77777;PMS5003;66966;-34.746;138.604;2023-07-29T09:22:30;57;53;
77777;PMS5003;66966;-34.746;138.604;2023-07-29T09:24:57;53;51;
77777;PMS5003;66966;-34.746;138.604;2023-07-29T09:27:25;52;49;
77777;PMS5003;66966;-34.746;138.604;2023-07-29T09:29:46;55;52;
77777;PMS5003;66966;-34.746;138.604;2023-07-29T09:32:18;42;40;
77777;PMS5003;66966;-34.746;138.604;2023-07-29T09:34:38;44;43;
77777;PMS5003;66966;-34.746;138.604;2023-07-29T09:37:03;45;42;
77777;PMS5003;66966;-34.746;138.604;2023-07-29T09:39:28;41;39;
77777;PMS5003;66966;-34.746;138.604;2023-07-29T09:41:53;39;35;
77777;PMS5003;66966;-34.746;138.604;2023-07-29T09:44:18;39;38;
77777;PMS5003;66966;-34.746;138.604;2023-07-29T09:46:45;31;31;
77777;PMS5003;66966;-34.746;138.604;2023-07-29T09:49:09;29;27;
77777;PMS5003;66966;-34.746;138.604;2023-07-29T09:51:37;25;25;
77777;PMS5003;66966;-34.746;138.604;2023-07-29T09:54:02;24;23;
77777;PMS5003;66966;-34.746;138.604;2023-07-29T09:56:26;19;19;
77777;PMS5003;66966;-34.746;138.604;2023-07-29T09:58:52;19;18;
77777;PMS5003;66966;-34.746;138.604;2023-07-29T10:01:18;22;19;
77777;PMS5003;66966;-34.746;138.604;2023-07-29T10:03:44;23;22;
77777;PMS5003;66966;-34.746;138.604;2023-07-29T10:06:08;20;18;
77777;PMS5003;66966;-34.746;138.604;2023-07-29T10:08:34;20;20;
77777;PMS5003;66966;-34.746;138.604;2023-07-29T10:10:59;20;20;
77777;PMS5003;66966;-34.746;138.604;2023-07-29T10:13:26;22;21;
77777;PMS5003;66966;-34.746;138.604;2023-07-29T10:15:51;22;21;
77777;PMS5003;66966;-34.746;138.604;2023-07-29T10:18:16;20;20;
77777;PMS5003;66966;-34.746;138.604;2023-07-29T10:20:42;20;20;
77777;PMS5003;66966;-34.746;138.604;2023-07-29T10:23:07;31;29;
77777;PMS5003;66966;-34.746;138.604;2023-07-29T10:25:34;29;27;
77777;PMS5003;66966;-34.746;138.604;2023-07-29T10:28:00;32;32;
77777;PMS5003;66966;-34.746;138.604;2023-07-29T10:30:23;28;25;
77777;PMS5003;66966;-34.746;138.604;2023-07-29T10:32:49;29;29;
77777;PMS5003;66966;-34.746;138.604;2023-07-29T10:35:14;25;24;
77777;PMS5003;66966;-34.746;138.604;2023-07-29T10:37:40;25;24;
77777;PMS5003;66966;-34.746;138.604;2023-07-29T10:40:06;28;28;
77777;PMS5003;66966;-34.746;138.604;2023-07-29T10:42:31;24;23;
77777;PMS5003;66966;-34.746;138.604;2023-07-29T10:44:56;32;31;
77777;PMS5003;66966;-34.746;138.604;2023-07-29T10:47:22;27;26;
77777;PMS5003;66966;-34.746;138.604;2023-07-29T10:49:47;28;27;
77777;PMS5003;66966;-34.746;138.604;2023-07-29T10:52:13;31;29;
77777;PMS5003;66966;-34.746;138.604;2023-07-29T10:54:42;30;29;
77777;PMS5003;66966;-34.746;138.604;2023-07-29T10:57:03;31;29;
77777;PMS5003;66966;-34.746;138.604;2023-07-29T10:59:32;26;26;
77777;PMS5003;66966;-34.746;138.604;2023-07-29T11:01:57;26;25;
77777;PMS5003;66966;-34.746;138.604;2023-07-29T11:04:24;27;27;
77777;PMS5003;66966;-34.746;138.604;2023-07-29T11:11:37;22;21;
77777;PMS5003;66966;-34.746;138.604;2023-07-29T11:14:02;22;19;
77777;PMS5003;66966;-34.746;138.604;2023-07-29T11:16:29;23;22;
77777;PMS5003;66966;-34.746;138.604;2023-07-29T11:18:53;22;21;
77777;PMS5003;66966;-34.746;138.604;2023-07-29T11:21:19;22;22;
77777;PMS5003;66966;-34.746;138.604;2023-07-29T11:23:45;20;20;
77777;PMS5003;66966;-34.746;138.604;2023-07-29T11:26:10;21;20;
77777;PMS5003;66966;-34.746;138.604;2023-07-29T11:28:38;28;27;
77777;PMS5003;66966;-34.746;138.604;2023-07-29T11:31:01;43;37;
77777;PMS5003;66966;-34.746;138.604;2023-07-29T11:33:27;51;46;
77777;PMS5003;66966;-34.746;138.604;2023-07-29T11:35:53;46;42;
77777;PMS5003;66966;-34.746;138.604;2023-07-29T11:38:19;39;36;
77777;PMS5003;66966;-34.746;138.604;2023-07-29T11:43:17;22;22;
77777;PMS5003;66966;-34.746;138.604;2023-07-29T11:45:35;20;20;
77777;PMS5003;66966;-34.746;138.604;2023-07-29T11:48:01;21;19;
77777;PMS5003;66966;-34.746;138.604;2023-07-29T11:50:26;24;22;
77777;PMS5003;66966;-34.746;138.604;2023-07-29T11:52:52;22;21;
77777;PMS5003;66966;-34.746;138.604;2023-07-29T11:55:17;29;27;
77777;PMS5003;66966;-34.746;138.604;2023-07-29T11:57:43;29;28;
77777;PMS5003;66966;-34.746;138.604;2023-07-29T12:00:08;31;29;
77777;PMS5003;66966;-34.746;138.604;2023-07-29T12:02:34;28;26;
77777;PMS5003;66966;-34.746;138.604;2023-07-29T12:04:59;25;24;
77777;PMS5003;66966;-34.746;138.604;2023-07-29T12:07:25;24;23;
77777;PMS5003;66966;-34.746;138.604;2023-07-29T12:09:50;18;18;
77777;PMS5003;66966;-34.746;138.604;2023-07-29T12:12:16;23;23;
77777;PMS5003;66966;-34.746;138.604;2023-07-29T12:14:43;19;19;
77777;PMS5003;66966;-34.746;138.604;2023-07-29T12:17:08;20;20;
77777;PMS5003;66966;-34.746;138.604;2023-07-29T12:19:33;23;22;
77777;PMS5003;66966;-34.746;138.604;2023-07-29T12:21:59;22;20;
77777;PMS5003;66966;-34.746;138.604;2023-07-29T12:24:24;24;24;
77777;PMS5003;66966;-34.746;138.604;2023-07-29T12:26:49;21;19;
77777;PMS5003;66966;-34.746;138.604;2023-07-29T12:29:16;21;21;
77777;PMS5003;66966;-34.746;138.604;2023-07-29T12:31:41;25;24;
77777;PMS5003;66966;-34.746;138.604;2023-07-29T12:34:07;25;25;
77777;PMS5003;66966;-34.746;138.604;2023-07-29T12:38:59;18;17;
77777;PMS5003;66966;-34.746;138.604;2023-07-29T12:41:23;22;17;
77777;PMS5003;66966;-34.746;138.604;2023-07-29T12:43:49;19;18;
77777;PMS5003;66966;-34.746;138.604;2023-07-29T12:46:14;23;22;
77777;PMS5003;66966;-34.746;138.604;2023-07-29T12:48:40;29;26;
77777;PMS5003;66966;-34.746;138.604;2023-07-29T12:51:05;22;22;
77777;PMS5003;66966;-34.746;138.604;2023-07-29T12:53:31;21;20;
77777;PMS5003;66966;-34.746;138.604;2023-07-29T12:55:56;24;23;
77777;PMS5003;66966;-34.746;138.604;2023-07-29T12:58:22;21;21;
77777;PMS5003;66966;-34.746;138.604;2023-07-29T13:00:48;17;16;
77777;PMS5003;66966;-34.746;138.604;2023-07-29T13:03:13;14;14;
77777;PMS5003;66966;-34.746;138.604;2023-07-29T13:05:39;17;16;
77777;PMS5003;66966;-34.746;138.604;2023-07-29T13:08:04;15;13;
77777;PMS5003;66966;-34.746;138.604;2023-07-29T13:10:30;18;18;
77777;PMS5003;66966;-34.746;138.604;2023-07-29T13:12:56;12;12;
77777;PMS5003;66966;-34.746;138.604;2023-07-29T13:15:21;16;14;
77777;PMS5003;66966;-34.746;138.604;2023-07-29T13:17:46;14;13;
77777;PMS5003;66966;-34.746;138.604;2023-07-29T13:20:12;14;12;
77777;PMS5003;66966;-34.746;138.604;2023-07-29T13:22:38;11;11;
77777;PMS5003;66966;-34.746;138.604;2023-07-29T13:25:03;14;14;
77777;PMS5003;66966;-34.746;138.604;2023-07-29T13:27:28;13;13;
77777;PMS5003;66966;-34.746;138.604;2023-07-29T13:29:55;9;9;
77777;PMS5003;66966;-34.746;138.604;2023-07-29T13:32:19;11;9;
77777;PMS5003;66966;-34.746;138.604;2023-07-29T13:34:45;9;8;
77777;PMS5003;66966;-34.746;138.604;2023-07-29T13:37:11;11;11;
77777;PMS5003;66966;-34.746;138.604;2023-07-29T13:39:37;10;9;
77777;PMS5003;66966;-34.746;138.604;2023-07-29T13:42:03;10;9;
77777;PMS5003;66966;-34.746;138.604;2023-07-29T13:44:29;9;9;
77777;PMS5003;66966;-34.746;138.604;2023-07-29T13:46:54;10;10;
77777;PMS5003;66966;-34.746;138.604;2023-07-29T13:49:20;10;10;
77777;PMS5003;66966;-34.746;138.604;2023-07-29T13:51:46;10;9;
77777;PMS5003;66966;-34.746;138.604;2023-07-29T13:54:12;10;9;
77777;PMS5003;66966;-34.746;138.604;2023-07-29T13:56:37;10;9;
77777;PMS5003;66966;-34.746;138.604;2023-07-29T13:59:03;11;11;
77777;PMS5003;66966;-34.746;138.604;2023-07-29T14:01:29;10;10;
77777;PMS5003;66966;-34.746;138.604;2023-07-29T14:03:54;10;10;
77777;PMS5003;66966;-34.746;138.604;2023-07-29T14:06:20;10;9;
77777;PMS5003;66966;-34.746;138.604;2023-07-29T14:08:46;11;9;
77777;PMS5003;66966;-34.746;138.604;2023-07-29T14:11:12;9;9;
77777;PMS5003;66966;-34.746;138.604;2023-07-29T14:13:38;7;7;
77777;PMS5003;66966;-34.746;138.604;2023-07-29T14:16:04;8;8;
77777;PMS5003;66966;-34.746;138.604;2023-07-29T14:18:30;9;9;
77777;PMS5003;66966;-34.746;138.604;2023-07-29T14:20:55;7;7;
77777;PMS5003;66966;-34.746;138.604;2023-07-29T14:23:21;7;7;
77777;PMS5003;66966;-34.746;138.604;2023-07-29T14:25:47;8;8;
77777;PMS5003;66966;-34.746;138.604;2023-07-29T14:28:13;7;7;
77777;PMS5003;66966;-34.746;138.604;2023-07-29T14:30:38;7;6;
77777;PMS5003;66966;-34.746;138.604;2023-07-29T14:33:04;6;6;
77777;PMS5003;66966;-34.746;138.604;2023-07-29T14:35:29;8;8;
77777;PMS5003;66966;-34.746;138.604;2023-07-29T14:37:55;5;5;
77777;PMS5003;66966;-34.746;138.604;2023-07-29T14:40:21;6;6;
77777;PMS5003;66966;-34.746;138.604;2023-07-29T14:42:47;5;5;
77777;PMS5003;66966;-34.746;138.604;2023-07-29T14:45:13;5;5;
77777;PMS5003;66966;-34.746;138.604;2023-07-29T14:47:38;5;5;
77777;PMS5003;66966;-34.746;138.604;2023-07-29T14:50:05;4;4;
77777;PMS5003;66966;-34.746;138.604;2023-07-29T14:52:30;6;6;
77777;PMS5003;66966;-34.746;138.604;2023-07-29T14:54:56;3;3;
77777;PMS5003;66966;-34.746;138.604;2023-07-29T14:57:22;5;5;
77777;PMS5003;66966;-34.746;138.604;2023-07-29T14:59:48;4;4;
77777;PMS5003;66966;-34.746;138.604;2023-07-29T15:02:13;5;4;
77777;PMS5003;66966;-34.746;138.604;2023-07-29T15:04:39;5;5;
77777;PMS5003;66966;-34.746;138.604;2023-07-29T15:07:06;7;5;
77777;PMS5003;66966;-34.746;138.604;2023-07-29T15:09:31;5;4;
77777;PMS5003;66966;-34.746;138.604;2023-07-29T15:11:57;4;4;
77777;PMS5003;66966;-34.746;138.604;2023-07-29T15:14:23;2;2;
77777;PMS5003;66966;-34.746;138.604;2023-07-29T15:16:48;4;4;
77777;PMS5003;66966;-34.746;138.604;2023-07-29T15:19:15;4;4;
77777;PMS5003;66966;-34.746;138.604;2023-07-29T15:21:40;3;3;
77777;PMS5003;66966;-34.746;138.604;2023-07-29T15:24:06;3;3;
77777;PMS5003;66966;-34.746;138.604;2023-07-29T15:26:32;3;3;
77777;PMS5003;66966;-34.746;138.604;2023-07-29T15:29:00;6;5;
77777;PMS5003;66966;-34.746;138.604;2023-07-29T15:31:24;3;3;
77777;PMS5003;66966;-34.746;138.604;2023-07-29T15:33:49;5;3;
77777;PMS5003;66966;-34.746;138.604;2023-07-29T15:36:15;3;3;
77777;PMS5003;66966;-34.746;138.604;2023-07-29T15:38:40;3;2;
77777;PMS5003;66966;-34.746;138.604;2023-07-29T15:41:06;3;2;
77777;PMS5003;66966;-34.746;138.604;2023-07-29T15:43:32;3;2;
77777;PMS5003;66966;-34.746;138.604;2023-07-29T15:45:58;3;3;
77777;PMS5003;66966;-34.746;138.604;2023-07-29T15:48:24;2;2;
77777;PMS5003;66966;-34.746;138.604;2023-07-29T15:50:49;2;2;
77777;PMS5003;66966;-34.746;138.604;2023-07-29T15:53:15;2;2;